createdAt,value
2018-12-15T00:02:02.153Z,10.53
2018-12-15T00:04:31.618Z,10.00
2018-12-15T00:07:00.206Z,10.57
2018-12-15T00:09:29.038Z,10.70
2018-12-15T00:11:57.893Z,9.53
2018-12-15T00:14:27.546Z,11.73
2018-12-15T00:16:56.050Z,10.70
2018-12-15T00:19:24.479Z,11.30
2018-12-15T00:21:53.007Z,10.43
2018-12-15T00:24:21.564Z,10.17
2018-12-15T00:26:50.566Z,11.00
2018-12-15T00:29:19.039Z,10.50
2018-12-15T00:31:47.521Z,11.87
2018-12-15T00:34:16.134Z,11.30
2018-12-15T00:36:44.639Z,10.53
2018-12-15T00:39:13.177Z,10.63
2018-12-15T00:41:41.988Z,11.50
2018-12-15T00:44:10.493Z,11.30
2018-12-15T00:46:39.042Z,10.17
2018-12-15T00:49:07.474Z,11.17
2018-12-15T00:51:36.749Z,11.37
2018-12-15T00:54:05.245Z,10.50
2018-12-15T00:56:33.778Z,11.40
2018-12-15T00:59:02.301Z,10.37
2018-12-15T01:01:30.799Z,12.07
2018-12-15T01:04:00.120Z,11.23
2018-12-15T01:06:28.782Z,10.67
2018-12-15T01:08:57.340Z,11.23
2018-12-15T01:11:25.837Z,10.20
2018-12-15T01:13:54.317Z,10.53
2018-12-15T01:16:22.781Z,10.80
2018-12-15T01:18:51.464Z,11.70
2018-12-15T01:21:20.012Z,11.57
2018-12-15T01:23:48.533Z,11.73
2018-12-15T01:26:18.871Z,11.27
2018-12-15T01:28:47.435Z,11.00
2018-12-15T01:31:16.093Z,10.77
2018-12-15T01:33:45.930Z,11.87
2018-12-15T01:36:14.542Z,10.67
2018-12-15T01:38:43.037Z,11.27
2018-12-15T01:41:11.553Z,10.63
2018-12-15T01:43:40.030Z,10.90
2018-12-15T01:46:09.305Z,10.87
2018-12-15T01:48:38.581Z,10.83
2018-12-15T01:51:07.115Z,11.17
2018-12-15T01:53:36.775Z,10.73
2018-12-15T01:56:05.266Z,10.80
2018-12-15T01:58:33.803Z,12.33
2018-12-15T02:01:02.317Z,10.80
2018-12-15T02:03:30.930Z,10.97
2018-12-15T02:05:59.757Z,10.00
2018-12-15T02:08:28.521Z,10.27
2018-12-15T02:10:57.877Z,10.93
2018-12-15T02:13:26.633Z,11.20
2018-12-15T02:15:55.732Z,11.80
2018-12-15T02:18:24.258Z,11.67
2018-12-15T02:20:52.729Z,10.97
2018-12-15T02:23:21.380Z,12.20
2018-12-15T02:25:50.143Z,11.30
2018-12-15T02:28:18.693Z,11.80
2018-12-15T02:30:47.757Z,11.90
2018-12-15T02:33:16.457Z,10.70
2018-12-15T02:35:45.142Z,12.33
2018-12-15T02:38:14.007Z,12.50
2018-12-15T02:40:42.624Z,11.57
2018-12-15T02:43:11.716Z,12.80
2018-12-15T02:45:40.243Z,12.13
2018-12-15T02:48:08.734Z,11.97
2018-12-15T02:50:37.286Z,12.17
2018-12-15T02:53:05.868Z,11.27
2018-12-15T02:55:34.554Z,11.20
2018-12-15T02:58:34.198Z,12.17
2018-12-15T03:01:02.692Z,12.20
2018-12-15T03:03:31.839Z,11.73
2018-12-15T03:06:00.380Z,11.43
2018-12-15T03:08:28.865Z,10.93
2018-12-15T03:10:57.888Z,12.83
2018-12-15T03:13:26.382Z,11.93
2018-12-15T03:15:55.609Z,11.97
2018-12-15T03:18:24.941Z,12.07
2018-12-15T03:21:00.805Z,11.87
2018-12-15T03:23:30.053Z,11.73
2018-12-15T03:25:58.944Z,10.73
2018-12-15T03:28:28.572Z,11.67
2018-12-15T03:30:57.937Z,11.27
2018-12-15T03:33:26.475Z,11.07
2018-12-15T03:35:55.470Z,10.43
2018-12-15T03:38:24.056Z,11.97
2018-12-15T03:40:52.565Z,11.60
2018-12-15T03:43:20.983Z,11.13
2018-12-15T03:45:50.030Z,10.50
2018-12-15T03:48:19.108Z,10.73
2018-12-15T03:50:48.209Z,11.50
2018-12-15T03:53:16.766Z,12.30
2018-12-15T03:55:45.367Z,11.73
2018-12-15T03:58:13.990Z,12.23
2018-12-15T04:00:42.626Z,11.07
2018-12-15T04:03:11.491Z,10.90
2018-12-15T04:05:40.018Z,10.10
2018-12-15T04:08:08.575Z,11.40
2018-12-15T04:10:38.369Z,11.50
2018-12-15T04:13:06.860Z,10.23
2018-12-15T04:15:35.401Z,11.90
2018-12-15T04:18:04.152Z,11.57
2018-12-15T04:20:32.611Z,10.17
2018-12-15T04:23:01.147Z,10.50
2018-12-15T04:25:29.645Z,10.50
2018-12-15T04:27:58.667Z,11.03
2018-12-15T04:30:27.146Z,10.47
2018-12-15T04:32:55.845Z,10.47
2018-12-15T04:35:24.362Z,11.37
2018-12-15T04:37:52.828Z,10.53
2018-12-15T04:40:21.618Z,11.07
2018-12-15T04:42:50.350Z,10.03
2018-12-15T04:45:18.909Z,9.80
2018-12-15T04:47:47.443Z,10.57
2018-12-15T04:50:15.956Z,10.43
2018-12-15T04:52:44.467Z,10.30
2018-12-15T04:55:12.986Z,9.90
2018-12-15T04:57:41.511Z,9.47
2018-12-15T05:00:10.076Z,10.20
2018-12-15T05:02:43.814Z,9.50
2018-12-15T05:05:09.790Z,10.10
2018-12-15T05:07:38.966Z,9.90
2018-12-15T05:10:07.545Z,9.40
2018-12-15T05:12:36.152Z,9.30
2018-12-15T05:15:04.691Z,10.30
2018-12-15T05:17:33.338Z,10.73
2018-12-15T05:20:01.955Z,9.33
2018-12-15T05:22:30.426Z,8.90
2018-12-15T05:24:59.045Z,9.30
2018-12-15T05:27:27.767Z,8.80
2018-12-15T05:29:57.647Z,8.37
2018-12-15T05:32:26.883Z,8.50
2018-12-15T05:34:55.689Z,8.90
2018-12-15T05:37:25.538Z,8.40
2018-12-15T05:39:54.071Z,8.13
2018-12-15T05:42:22.649Z,7.73
2018-12-15T05:44:51.137Z,8.20
2018-12-15T05:47:19.705Z,8.40
2018-12-15T05:49:48.140Z,8.40
2018-12-15T05:52:16.964Z,9.80
2018-12-15T05:54:45.479Z,10.03
2018-12-15T05:57:13.994Z,9.63
2018-12-15T05:59:42.714Z,9.07
2018-12-15T06:02:13.738Z,9.07
2018-12-15T06:04:42.238Z,8.93
2018-12-15T06:07:11.022Z,7.80
2018-12-15T06:09:40.099Z,8.87
2018-12-15T06:12:08.639Z,10.13
2018-12-15T06:14:37.252Z,8.93
2018-12-15T06:17:05.805Z,9.40
2018-12-15T06:19:34.363Z,9.30
2018-12-15T06:22:02.909Z,9.70
2018-12-15T06:24:31.453Z,8.53
2018-12-15T06:27:00.045Z,8.93
2018-12-15T06:29:28.583Z,8.33
2018-12-15T06:31:57.109Z,8.17
2018-12-15T06:34:25.644Z,8.50
2018-12-15T06:36:54.131Z,8.13
2018-12-15T06:39:23.381Z,9.30
2018-12-15T06:41:52.541Z,10.30
2018-12-15T06:44:21.061Z,9.40
2018-12-15T06:46:49.618Z,9.37
2018-12-15T06:49:18.812Z,9.47
2018-12-15T06:51:47.770Z,8.93
2018-12-15T06:54:16.487Z,10.43
2018-12-15T06:56:45.035Z,9.70
2018-12-15T06:59:14.298Z,9.23
2018-12-15T07:01:42.857Z,9.13
2018-12-15T07:04:11.416Z,9.87
2018-12-15T07:06:39.997Z,9.77
2018-12-15T07:09:08.543Z,8.77
2018-12-15T07:11:38.147Z,9.30
2018-12-15T07:14:06.647Z,8.93
2018-12-15T07:16:35.140Z,8.63
2018-12-15T07:19:04.474Z,9.03
2018-12-15T07:21:33.048Z,8.50
2018-12-15T07:24:01.642Z,9.10
2018-12-15T07:26:30.269Z,8.50
2018-12-15T07:28:59.217Z,9.97
2018-12-15T07:31:28.325Z,9.20
2018-12-15T07:33:56.955Z,9.10
2018-12-15T07:36:25.376Z,9.77
2018-12-15T07:38:54.058Z,8.77
2018-12-15T07:41:22.570Z,9.43
2018-12-15T07:43:51.982Z,9.90
2018-12-15T07:46:20.945Z,9.17
2018-12-15T07:48:51.532Z,10.00
2018-12-15T07:51:21.263Z,8.70
2018-12-15T07:53:49.789Z,9.20
2018-12-15T07:56:21.997Z,8.80
2018-12-15T07:58:51.146Z,9.10
2018-12-15T08:01:19.788Z,9.27
2018-12-15T08:03:48.378Z,8.63
2018-12-15T08:06:17.210Z,9.13
2018-12-15T08:08:46.902Z,9.47
2018-12-15T08:11:28.009Z,9.17
2018-12-15T08:14:01.845Z,9.23
2018-12-15T08:16:31.000Z,8.87
2018-12-15T08:19:00.314Z,8.97
2018-12-15T08:21:28.817Z,8.40
2018-12-15T08:23:57.945Z,8.03
2018-12-15T08:26:26.422Z,9.37
2018-12-15T08:28:54.926Z,8.87
2018-12-15T08:31:24.204Z,9.17
2018-12-15T08:33:53.344Z,8.37
2018-12-15T08:36:21.911Z,8.93
2018-12-15T08:38:50.425Z,9.37
2018-12-15T08:41:18.945Z,9.07
2018-12-15T08:43:48.191Z,8.97
2018-12-15T08:46:18.818Z,9.47
2018-12-15T08:48:47.602Z,9.33
2018-12-15T08:51:17.091Z,9.57
2018-12-15T08:53:46.273Z,9.00
2018-12-15T08:56:14.834Z,9.60
2018-12-15T08:58:44.147Z,9.63
2018-12-15T09:01:14.450Z,8.97
2018-12-15T09:03:43.037Z,9.03
2018-12-15T09:06:11.671Z,9.13
2018-12-15T09:08:40.267Z,9.30
2018-12-15T09:11:08.792Z,9.83
2018-12-15T09:13:38.380Z,9.03
2018-12-15T09:16:07.629Z,9.50
2018-12-15T09:18:36.481Z,9.63
2018-12-15T09:21:05.029Z,10.07
2018-12-15T09:23:33.579Z,9.77
2018-12-15T09:26:02.441Z,8.67
2018-12-15T09:28:31.600Z,9.97
2018-12-15T09:31:00.318Z,9.17
2018-12-15T09:33:29.702Z,9.77
2018-12-15T09:35:58.221Z,9.87
2018-12-15T09:38:26.745Z,9.10
2018-12-15T09:40:55.307Z,9.43
2018-12-15T09:43:23.783Z,9.97
2018-12-15T09:45:52.287Z,9.50
2018-12-15T09:48:20.788Z,10.53
2018-12-15T09:50:50.633Z,9.90
2018-12-15T09:53:21.568Z,10.30
2018-12-15T09:55:50.114Z,10.67
2018-12-15T09:58:18.757Z,9.57
2018-12-15T10:00:47.321Z,10.00
2018-12-15T10:03:15.823Z,9.77
2018-12-15T10:05:44.327Z,10.10
2018-12-15T10:08:13.027Z,10.43
2018-12-15T10:10:41.944Z,10.37
2018-12-15T10:13:10.422Z,10.40
2018-12-15T10:15:40.350Z,9.90
2018-12-15T10:18:08.871Z,10.63
2018-12-15T10:20:37.480Z,10.77
2018-12-15T10:23:06.563Z,10.57
2018-12-15T10:25:35.146Z,9.87
2018-12-15T10:28:03.689Z,9.97
2018-12-15T10:30:37.543Z,10.27
2018-12-15T10:33:06.759Z,10.43
2018-12-15T10:35:35.246Z,11.13
2018-12-15T10:38:03.797Z,10.17
2018-12-15T10:40:33.187Z,10.60
2018-12-15T10:43:01.712Z,9.87
2018-12-15T10:45:31.536Z,10.97
2018-12-15T10:48:00.244Z,10.97
2018-12-15T10:50:28.867Z,11.07
2018-12-15T10:52:57.623Z,10.53
2018-12-15T10:55:26.144Z,10.97
2018-12-15T10:57:55.132Z,10.20
2018-12-15T11:00:26.560Z,11.03
2018-12-15T11:02:55.601Z,10.93
2018-12-15T11:05:24.622Z,10.67
2018-12-15T11:07:53.434Z,11.23
2018-12-15T11:10:22.401Z,10.60
2018-12-15T11:12:51.050Z,11.27
2018-12-15T11:15:20.463Z,10.60
2018-12-15T11:17:49.218Z,11.57
2018-12-15T11:20:19.117Z,11.17
2018-12-15T11:22:47.601Z,10.93
2018-12-15T11:25:16.158Z,11.33
2018-12-15T11:27:44.792Z,10.67
2018-12-15T11:30:13.412Z,10.53
2018-12-15T11:32:42.096Z,12.50
2018-12-15T11:35:10.621Z,12.43
2018-12-15T11:40:15.040Z,11.17
2018-12-15T11:42:44.944Z,11.17
2018-12-15T11:45:14.614Z,12.00
2018-12-15T11:47:43.420Z,10.37
2018-12-15T11:50:12.156Z,10.47
2018-12-15T11:52:40.681Z,10.60
2018-12-15T11:55:09.193Z,11.23
2018-12-15T11:57:38.439Z,10.70
2018-12-15T12:00:07.018Z,10.87
2018-12-15T12:02:35.916Z,11.30
2018-12-15T12:05:04.662Z,10.90
2018-12-15T12:07:33.206Z,10.60
2018-12-15T12:10:01.772Z,10.80
2018-12-15T12:12:31.840Z,11.37
2018-12-15T12:15:00.561Z,12.17
2018-12-15T12:17:29.084Z,12.20
2018-12-15T12:19:57.561Z,12.57
2018-12-15T12:22:26.030Z,11.87
2018-12-15T12:24:54.550Z,11.90
2018-12-15T12:27:23.174Z,12.37
2018-12-15T12:29:52.382Z,11.33
2018-12-15T12:32:21.000Z,12.17
2018-12-15T12:34:49.525Z,11.60
2018-12-15T12:37:18.773Z,12.17
2018-12-15T12:39:47.317Z,12.30
2018-12-15T12:42:15.870Z,12.13
2018-12-15T12:44:44.430Z,12.67
2018-12-15T12:47:13.141Z,12.20
2018-12-15T12:49:42.538Z,12.07
2018-12-15T12:52:11.777Z,12.87
2018-12-15T12:54:41.850Z,13.17
2018-12-15T12:57:10.616Z,11.20
2018-12-15T12:59:39.252Z,12.13
2018-12-15T13:02:07.782Z,12.70
2018-12-15T13:04:36.609Z,13.00
2018-12-15T13:07:05.300Z,11.73
2018-12-15T13:09:33.808Z,12.23
2018-12-15T13:12:02.438Z,12.97
2018-12-15T13:14:31.682Z,12.47
2018-12-15T13:17:00.643Z,12.90
2018-12-15T13:19:29.125Z,13.20
2018-12-15T13:21:57.570Z,13.00
2018-12-15T13:24:26.547Z,13.03
2018-12-15T13:26:59.099Z,29.33
2018-12-15T13:29:26.095Z,36.83
2018-12-15T13:31:54.698Z,15.17
2018-12-15T13:34:23.807Z,14.07
2018-12-15T13:36:52.746Z,12.47
2018-12-15T13:39:21.274Z,13.97
2018-12-15T13:41:49.956Z,13.70
2018-12-15T13:44:19.070Z,14.83
2018-12-15T13:46:47.807Z,14.30
2018-12-15T13:49:16.273Z,14.10
2018-12-15T13:51:44.832Z,13.10
2018-12-15T13:54:18.945Z,13.77
2018-12-15T13:56:48.098Z,13.23
2018-12-15T13:59:16.582Z,13.30
2018-12-15T14:01:45.606Z,13.47
2018-12-15T14:04:14.622Z,16.00
2018-12-15T14:06:43.061Z,13.10
2018-12-15T14:09:11.521Z,14.17
2018-12-15T14:11:40.856Z,14.20
2018-12-15T14:14:09.400Z,13.10
2018-12-15T14:16:37.813Z,13.43
2018-12-15T14:19:06.365Z,13.83
2018-12-15T14:21:34.865Z,13.90
2018-12-15T14:24:03.421Z,14.60
2018-12-15T14:26:31.910Z,14.47
2018-12-15T14:29:01.021Z,14.17
2018-12-15T14:31:29.626Z,13.83
2018-12-15T14:33:58.426Z,14.47
2018-12-15T14:36:26.898Z,14.07
2018-12-15T14:38:55.435Z,14.83
2018-12-15T14:41:25.162Z,15.07
2018-12-15T14:43:55.158Z,15.37
2018-12-15T14:46:23.688Z,14.97
2018-12-15T14:48:52.271Z,14.73
2018-12-15T14:51:20.865Z,14.73
2018-12-15T14:53:49.492Z,14.57
2018-12-15T14:56:18.013Z,14.87
2018-12-15T14:58:46.592Z,15.80
2018-12-15T15:01:15.693Z,14.70
2018-12-15T15:03:44.460Z,14.60
2018-12-15T15:06:13.085Z,14.90
2018-12-15T15:08:41.618Z,15.63
2018-12-15T15:11:10.183Z,14.10
2018-12-15T15:13:38.808Z,14.07
2018-12-15T15:16:07.528Z,14.13
2018-12-15T15:18:36.138Z,15.07
2018-12-15T15:21:04.701Z,13.90
2018-12-15T15:23:33.274Z,14.40
2018-12-15T15:26:02.360Z,15.40
2018-12-15T15:28:30.886Z,14.77
2018-12-15T15:30:59.537Z,15.20
2018-12-15T15:33:28.213Z,14.33
2018-12-15T15:35:56.673Z,15.00
2018-12-15T15:38:25.198Z,14.87
2018-12-15T15:40:53.739Z,15.20
2018-12-15T15:43:22.341Z,15.70
2018-12-15T15:45:52.372Z,16.00
2018-12-15T15:48:22.002Z,15.43
2018-12-15T15:50:50.597Z,15.83
2018-12-15T15:53:19.779Z,15.47
2018-12-15T15:55:48.401Z,15.03
2018-12-15T15:58:17.620Z,15.50
2018-12-15T16:00:46.964Z,14.93
2018-12-15T16:03:15.577Z,14.37
2018-12-15T16:05:44.241Z,14.53
2018-12-15T16:08:13.261Z,15.57
2018-12-15T16:10:42.111Z,15.50
2018-12-15T16:13:11.945Z,14.97
2018-12-15T16:15:41.922Z,15.47
2018-12-15T16:18:10.820Z,15.43
2018-12-15T16:20:43.236Z,14.77
2018-12-15T16:23:10.588Z,15.00
2018-12-15T16:25:39.234Z,14.73
2018-12-15T16:28:08.334Z,15.67
2018-12-15T16:30:36.810Z,15.70
2018-12-15T16:33:05.302Z,16.20
2018-12-15T16:35:34.027Z,14.47
2018-12-15T16:38:02.694Z,15.23
2018-12-15T16:40:31.275Z,16.07
2018-12-15T16:42:59.749Z,14.43
2018-12-15T16:45:29.075Z,15.20
2018-12-15T16:47:58.910Z,15.43
2018-12-15T16:50:27.636Z,14.33
2018-12-15T16:52:57.126Z,14.37
2018-12-15T16:55:25.682Z,15.47
2018-12-15T16:57:54.319Z,16.20
2018-12-15T17:00:24.045Z,15.20
2018-12-15T17:02:53.153Z,15.60
2018-12-15T17:05:23.369Z,15.40
2018-12-15T17:07:51.902Z,16.07
2018-12-15T17:10:21.010Z,14.37
2018-12-15T17:12:50.148Z,15.83
2018-12-15T17:15:19.131Z,14.63
2018-12-15T17:17:47.783Z,15.77
2018-12-15T17:20:16.600Z,19.20
2018-12-15T17:22:45.239Z,16.23
2018-12-15T17:25:14.307Z,15.33
2018-12-15T17:27:42.903Z,16.80
2018-12-15T17:30:12.287Z,16.00
2018-12-15T17:32:40.872Z,17.13
2018-12-15T17:35:09.518Z,16.00
2018-12-15T17:37:38.075Z,16.33
2018-12-15T17:40:08.690Z,14.57
2018-12-15T17:42:37.171Z,17.07
2018-12-15T17:45:07.180Z,67.77
2018-12-15T17:47:35.691Z,17.97
2018-12-15T17:50:04.254Z,15.13
2018-12-15T17:52:32.774Z,14.90
2018-12-15T17:55:01.358Z,16.23
2018-12-15T17:57:29.873Z,16.00
2018-12-15T17:59:58.549Z,17.30
2018-12-15T18:02:27.715Z,16.60
2018-12-15T18:04:56.247Z,15.00
2018-12-15T18:07:24.817Z,16.97
2018-12-15T18:09:54.509Z,16.50
2018-12-15T18:12:23.291Z,16.60
2018-12-15T18:14:52.063Z,17.47
2018-12-15T18:17:20.818Z,18.07
2018-12-15T18:19:49.521Z,16.43
2018-12-15T18:22:18.031Z,18.27
2018-12-15T18:24:47.898Z,17.00
2018-12-15T18:27:16.473Z,17.00
2018-12-15T18:29:45.014Z,16.83
2018-12-15T18:32:13.507Z,17.00
2018-12-15T18:34:42.114Z,16.00
2018-12-15T18:37:10.833Z,17.50
2018-12-15T18:39:39.483Z,17.17
2018-12-15T18:42:10.813Z,19.30
2018-12-15T18:44:38.772Z,17.37
2018-12-15T18:47:25.518Z,17.77
2018-12-15T18:49:54.138Z,17.43
2018-12-15T18:52:23.936Z,17.70
2018-12-15T18:54:53.079Z,19.67
2018-12-15T18:57:21.787Z,19.33
2018-12-15T18:59:50.869Z,18.87
2018-12-15T19:02:19.709Z,19.33
2018-12-15T19:04:48.731Z,20.63
2018-12-15T19:07:19.415Z,21.07
2018-12-15T19:09:50.698Z,17.97
2018-12-15T19:12:19.943Z,18.47
2018-12-15T19:14:49.553Z,19.27
2018-12-15T19:17:18.909Z,18.37
2018-12-15T19:19:47.499Z,24.90
2018-12-15T19:22:16.104Z,32.80
2018-12-15T19:24:44.593Z,28.53
2018-12-15T19:27:14.186Z,30.77
2018-12-15T19:29:42.800Z,32.47
2018-12-15T19:32:11.563Z,26.60
2018-12-15T19:34:42.078Z,18.87
2018-12-15T19:37:11.365Z,17.03
2018-12-15T19:39:40.179Z,16.47
2018-12-15T19:42:13.975Z,16.50
2018-12-15T19:44:56.932Z,17.83
2018-12-15T19:47:25.732Z,18.27
2018-12-15T19:49:54.946Z,19.70
2018-12-15T19:52:24.269Z,19.23
2018-12-15T19:54:52.899Z,19.37
2018-12-15T19:57:21.608Z,19.90
2018-12-15T19:59:50.188Z,20.03
2018-12-15T20:02:18.848Z,19.87
2018-12-15T20:04:47.517Z,23.67
2018-12-15T20:07:16.711Z,22.80
2018-12-15T20:09:45.291Z,24.80
2018-12-15T20:12:14.333Z,24.23
2018-12-15T20:14:42.871Z,23.83
2018-12-15T20:17:13.715Z,24.53
2018-12-15T20:19:42.428Z,24.70
2018-12-15T20:22:10.990Z,23.03
2018-12-15T20:24:39.516Z,21.87
2018-12-15T20:27:08.052Z,21.20
2018-12-15T20:29:36.542Z,21.53
2018-12-15T20:32:05.808Z,23.63
2018-12-15T20:34:34.363Z,23.27
2018-12-15T20:37:03.033Z,25.17
2018-12-15T20:39:31.574Z,26.40
2018-12-15T20:42:00.098Z,26.23
2018-12-15T20:44:29.390Z,27.90
2018-12-15T20:46:59.392Z,31.20
2018-12-15T20:49:27.910Z,25.87
2018-12-15T20:51:57.204Z,27.27
2018-12-15T20:54:25.884Z,27.43
2018-12-15T20:56:54.413Z,25.97
2018-12-15T20:59:23.542Z,24.77
2018-12-15T21:01:52.219Z,25.87
2018-12-15T21:04:20.786Z,24.90
2018-12-15T21:06:49.838Z,35.10
2018-12-15T21:09:18.462Z,29.65
2018-12-15T21:11:47.051Z,24.73
2018-12-15T21:14:15.666Z,30.13
2018-12-15T21:16:44.274Z,25.50
2018-12-15T21:19:13.411Z,24.37
2018-12-15T21:21:42.171Z,23.50
2018-12-15T21:24:10.716Z,24.50
2018-12-15T21:26:39.415Z,24.43
2018-12-15T21:29:08.493Z,25.53
2018-12-15T21:31:37.152Z,24.37
2018-12-15T21:34:08.034Z,25.60
2018-12-15T21:36:36.761Z,25.57
2018-12-15T21:39:06.731Z,24.27
2018-12-15T21:41:35.399Z,24.30
2018-12-15T21:44:04.418Z,23.10
2018-12-15T21:46:33.419Z,22.87
2018-12-15T21:49:01.981Z,21.97
2018-12-15T21:51:30.617Z,21.17
2018-12-15T21:53:59.287Z,19.87
2018-12-15T21:56:27.864Z,20.10
2018-12-15T21:58:56.509Z,17.57
2018-12-15T22:01:25.568Z,18.00
2018-12-15T22:03:54.228Z,19.50
2018-12-15T22:06:22.837Z,19.60
2018-12-15T22:08:51.413Z,20.87
2018-12-15T22:11:20.154Z,18.83
2018-12-15T22:13:48.733Z,20.20
2018-12-15T22:16:17.397Z,21.07
2018-12-15T22:18:46.773Z,18.17
2018-12-15T22:21:15.297Z,18.63
2018-12-15T22:23:43.873Z,18.10
2018-12-15T22:26:13.201Z,17.00
2018-12-15T22:28:41.838Z,17.30
2018-12-15T22:31:10.533Z,18.03
2018-12-15T22:33:39.143Z,17.07
2018-12-15T22:36:08.845Z,17.10
2018-12-15T22:38:37.475Z,16.47
2018-12-15T22:41:06.765Z,16.63
2018-12-15T22:43:35.247Z,17.20
2018-12-15T22:46:03.985Z,17.77
2018-12-15T22:48:33.185Z,16.50
2018-12-15T22:51:02.222Z,16.47
2018-12-15T22:53:31.502Z,17.13
2018-12-15T22:56:00.038Z,17.33
2018-12-15T22:58:29.923Z,17.53
2018-12-15T23:04:07.859Z,16.47
2018-12-15T23:06:36.485Z,16.90
2018-12-15T23:09:07.160Z,16.13
2018-12-15T23:11:35.654Z,16.53
2018-12-15T23:14:04.333Z,17.03
2018-12-15T23:16:45.282Z,16.03
2018-12-15T23:19:14.022Z,16.73
2018-12-15T23:21:42.530Z,16.10
2018-12-15T23:24:14.475Z,15.57
2018-12-15T23:26:43.754Z,15.57
2018-12-15T23:29:16.258Z,16.60
2018-12-15T23:31:44.957Z,16.17
2018-12-15T23:34:13.715Z,17.03
2018-12-15T23:36:42.329Z,15.63
2018-12-15T23:39:11.460Z,15.43
2018-12-15T23:41:40.570Z,15.40
2018-12-15T23:44:09.706Z,15.77
2018-12-15T23:46:38.254Z,15.30
2018-12-15T23:49:06.916Z,16.47
2018-12-15T23:51:36.833Z,16.57
2018-12-15T23:54:05.413Z,16.63
2018-12-15T23:56:34.063Z,15.00
2018-12-15T23:59:02.621Z,15.50
